Terminal Aerodrome Forecast
Issued by NWS

Home | Current Version | Previous Version | Text Only | Print | Product List | Glossary On
Versions: 1 2 3 4 5 6 7 8 9 10 11 12 13
000
FTUS46 KOTX 251120
TAFMWH
TAF
KMWH 251120Z 2512/2612 VRB03KT P6SM SCT100 BKN120
     FM251400 VRB04KT P6SM BKN070 OVC120
     FM252100 20007KT P6SM SCT060 BKN150
     FM260100 VRB05KT P6SM SCT060 SCT150=

USA.gov is the U.S. government's official web portal to all federal, state and local government web resources and services.